createdAt,value
2016-10-10T00:00:33.033Z,0
2016-10-10T00:01:32.998Z,0
2016-10-10T00:02:33.252Z,0
2016-10-10T00:03:32.916Z,0
2016-10-10T00:04:32.872Z,0
2016-10-10T00:05:33.140Z,0
2016-10-10T00:06:33.095Z,0
2016-10-10T00:07:33.063Z,0
2016-10-10T00:08:33.018Z,0
2016-10-10T00:09:32.676Z,0
2016-10-10T00:10:32.942Z,0
2016-10-10T00:11:32.913Z,0
2016-10-10T00:12:32.857Z,0
2016-10-10T00:13:32.535Z,0
2016-10-10T00:14:32.784Z,0
2016-10-10T00:15:32.750Z,0
2016-10-10T00:16:32.700Z,0
2016-10-10T00:17:32.360Z,0
2016-10-10T00:18:32.626Z,0
2016-10-10T00:19:32.291Z,0
2016-10-10T00:20:32.546Z,0
2016-10-10T00:21:32.507Z,0
2016-10-10T00:22:32.178Z,0
2016-10-10T00:23:32.126Z,0
2016-10-10T00:24:32.386Z,0
2016-10-10T00:25:32.345Z,0
2016-10-10T00:26:32.303Z,0
2016-10-10T00:27:32.267Z,0
2016-10-10T00:28:32.227Z,0
2016-10-10T00:29:32.187Z,0
2016-10-10T00:30:32.145Z,0
2016-10-10T00:31:32.104Z,0
2016-10-10T00:32:32.064Z,0
2016-10-10T00:33:32.026Z,0
2016-10-10T00:34:31.986Z,0
2016-10-10T00:35:31.949Z,0
2016-10-10T00:36:31.905Z,0
2016-10-10T00:37:31.869Z,0
2016-10-10T00:38:31.828Z,0
2016-10-10T00:39:31.784Z,0
2016-10-10T00:40:31.748Z,0
2016-10-10T00:41:31.703Z,0
2016-10-10T00:42:31.671Z,0
2016-10-10T00:43:31.621Z,0
2016-10-10T00:44:31.281Z,0
2016-10-10T00:45:31.252Z,0
2016-10-10T00:46:31.506Z,0
2016-10-10T00:47:31.462Z,0
2016-10-10T00:48:30.835Z,0
2016-10-10T00:49:31.383Z,0
2016-10-10T00:50:31.041Z,0
2016-10-10T00:51:31.003Z,0
2016-10-10T00:52:31.269Z,0
2016-10-10T00:53:31.225Z,0
2016-10-10T00:54:31.191Z,0
2016-10-10T00:55:31.140Z,0
2016-10-10T00:56:31.113Z,0
2016-10-10T00:57:31.065Z,0
2016-10-10T00:58:31.027Z,0
2016-10-10T00:59:30.982Z,0
2016-10-10T01:00:30.640Z,0
2016-10-10T01:01:30.919Z,0
2016-10-10T01:02:30.867Z,0
2016-10-10T01:03:30.818Z,0
2016-10-10T01:04:30.781Z,0
2016-10-10T01:05:30.743Z,0
2016-10-10T01:06:30.698Z,0
2016-10-10T01:07:30.360Z,0
2016-10-10T01:08:30.620Z,0
2016-10-10T01:09:30.583Z,0
2016-10-10T01:10:30.234Z,0
2016-10-10T01:11:30.196Z,0
2016-10-10T01:12:30.464Z,0
2016-10-10T01:13:30.419Z,0
2016-10-10T01:14:30.074Z,0
2016-10-10T01:15:30.337Z,0
2016-10-10T01:16:30.297Z,0
2016-10-10T01:17:29.958Z,0
2016-10-10T01:18:30.214Z,0
2016-10-10T01:19:30.185Z,0
2016-10-10T01:20:30.138Z,0
2016-10-10T01:21:30.096Z,0
2016-10-10T01:22:29.752Z,0
2016-10-10T01:23:30.017Z,0
2016-10-10T01:24:29.676Z,0
2016-10-10T01:25:29.664Z,0
2016-10-10T01:26:29.897Z,0
2016-10-10T01:27:29.551Z,0
2016-10-10T01:28:29.821Z,0
2016-10-10T01:29:29.475Z,0
2016-10-10T01:30:29.733Z,0
2016-10-10T01:31:29.697Z,0
2016-10-10T01:32:29.656Z,0
2016-10-10T01:33:29.618Z,0
2016-10-10T01:34:29.268Z,0
2016-10-10T01:35:29.226Z,0
2016-10-10T01:36:29.492Z,0
2016-10-10T01:37:29.453Z,0
2016-10-10T01:38:29.405Z,0
2016-10-10T01:39:29.364Z,0
2016-10-10T01:40:29.329Z,0
2016-10-10T01:41:28.978Z,0
2016-10-10T01:42:28.944Z,0
2016-10-10T01:43:28.914Z,0
2016-10-10T01:44:29.167Z,0
2016-10-10T01:45:29.126Z,0
2016-10-10T01:46:29.090Z,0
2016-10-10T01:47:28.740Z,0
2016-10-10T01:48:29.003Z,0
2016-10-10T01:49:28.963Z,0
2016-10-10T01:50:28.315Z,0
2016-10-10T01:51:28.884Z,0
2016-10-10T01:52:28.841Z,0
2016-10-10T01:53:28.801Z,0
2016-10-10T01:54:28.462Z,0
2016-10-10T01:55:28.716Z,0
2016-10-10T01:56:28.379Z,0
2016-10-10T01:57:28.340Z,0
2016-10-10T01:58:28.600Z,0
2016-10-10T01:59:28.559Z,0
2016-10-10T02:00:28.520Z,0
2016-10-10T02:01:28.175Z,0
2016-10-10T02:02:28.135Z,0
2016-10-10T02:03:28.392Z,0
2016-10-10T02:04:28.351Z,0
2016-10-10T02:05:28.003Z,0
2016-10-10T02:06:28.275Z,0
2016-10-10T02:07:28.232Z,0
2016-10-10T02:08:28.192Z,0
2016-10-10T02:09:28.150Z,0
2016-10-10T02:10:28.109Z,0
2016-10-10T02:11:27.763Z,0
2016-10-10T02:12:28.033Z,0
2016-10-10T02:13:27.984Z,0
2016-10-10T02:14:27.952Z,0
2016-10-10T02:15:27.907Z,0
2016-10-10T02:16:27.566Z,0
2016-10-10T02:17:27.826Z,0
2016-10-10T02:18:27.784Z,0
2016-10-10T02:19:27.747Z,0
2016-10-10T02:20:27.400Z,0
2016-10-10T02:21:27.771Z,0
2016-10-10T02:22:27.622Z,0
2016-10-10T02:23:27.584Z,0
2016-10-10T02:24:27.564Z,0
2016-10-10T02:25:27.498Z,0
2016-10-10T02:26:27.470Z,0
2016-10-10T02:27:27.419Z,0
2016-10-10T02:28:27.072Z,0
2016-10-10T02:29:27.333Z,0
2016-10-10T02:30:26.992Z,0
2016-10-10T02:31:27.253Z,0
2016-10-10T02:32:27.220Z,0
2016-10-10T02:33:27.173Z,0
2016-10-10T02:34:27.133Z,0
2016-10-10T02:35:26.791Z,0
2016-10-10T02:36:27.049Z,0
2016-10-10T02:37:27.003Z,0
2016-10-10T02:38:26.968Z,0
2016-10-10T02:39:26.624Z,0
2016-10-10T02:40:26.887Z,0
2016-10-10T02:41:26.540Z,0
2016-10-10T02:42:26.813Z,0
2016-10-10T02:43:26.461Z,0
2016-10-10T02:44:26.422Z,0
2016-10-10T02:45:26.696Z,0
2016-10-10T02:46:26.646Z,0
2016-10-10T02:47:26.302Z,0
2016-10-10T02:48:26.261Z,0
2016-10-10T02:49:26.519Z,0
2016-10-10T02:50:26.483Z,0
2016-10-10T02:51:26.443Z,0
2016-10-10T02:52:26.096Z,0
2016-10-10T02:53:26.360Z,0
2016-10-10T02:54:26.316Z,0
2016-10-10T02:55:25.989Z,0
2016-10-10T02:56:25.628Z,0
2016-10-10T02:57:26.195Z,0
2016-10-10T02:58:26.154Z,0
2016-10-10T02:59:26.111Z,0
2016-10-10T03:00:26.081Z,0
2016-10-10T03:01:26.031Z,0
2016-10-10T03:02:25.988Z,0
2016-10-10T03:03:25.952Z,0
2016-10-10T03:04:25.910Z,0
2016-10-10T03:05:25.861Z,0
2016-10-10T03:06:25.836Z,0
2016-10-10T03:07:25.778Z,0
2016-10-10T03:08:25.437Z,0
2016-10-10T03:09:25.397Z,0
2016-10-10T03:10:25.661Z,0
2016-10-10T03:11:25.312Z,0
2016-10-10T03:12:25.276Z,0
2016-10-10T03:13:25.234Z,0
2016-10-10T03:14:25.500Z,0
2016-10-10T03:15:25.452Z,0
2016-10-10T03:16:25.416Z,0
2016-10-10T03:17:25.069Z,0
2016-10-10T03:18:25.332Z,0
2016-10-10T03:19:25.288Z,0
2016-10-10T03:20:24.949Z,0
2016-10-10T03:21:25.214Z,0
2016-10-10T03:22:25.170Z,0
2016-10-10T03:23:25.136Z,0
2016-10-10T03:24:25.089Z,0
2016-10-10T03:25:25.045Z,0
2016-10-10T03:26:25.010Z,0
2016-10-10T03:27:24.962Z,0
2016-10-10T03:28:24.920Z,0
2016-10-10T03:29:24.577Z,0
2016-10-10T03:30:24.535Z,0
2016-10-10T03:31:24.794Z,0
2016-10-10T03:32:24.761Z,0
2016-10-10T03:33:24.730Z,0
2016-10-10T03:34:24.372Z,0
2016-10-10T03:35:24.631Z,0
2016-10-10T03:36:24.297Z,0
2016-10-10T03:37:24.559Z,0
2016-10-10T03:38:24.516Z,0
2016-10-10T03:39:24.471Z,0
2016-10-10T03:40:24.130Z,0
2016-10-10T03:41:24.391Z,0
2016-10-10T03:42:24.053Z,0
2016-10-10T03:43:23.701Z,0
2016-10-10T03:44:24.266Z,0
2016-10-10T03:45:24.246Z,0
2016-10-10T03:46:24.188Z,0
2016-10-10T03:47:23.844Z,0
2016-10-10T03:48:24.104Z,0
2016-10-10T03:49:24.063Z,0
2016-10-10T03:50:24.022Z,0
2016-10-10T03:51:23.982Z,0
2016-10-10T03:52:23.941Z,0
2016-10-10T03:53:23.597Z,0
2016-10-10T03:54:23.863Z,0
2016-10-10T03:55:23.518Z,0
2016-10-10T03:56:23.786Z,0
2016-10-10T03:57:23.742Z,0
2016-10-10T03:58:23.395Z,0
2016-10-10T03:59:23.659Z,0
2016-10-10T04:00:23.616Z,0
2016-10-10T04:01:23.575Z,0
2016-10-10T04:02:23.537Z,0
2016-10-10T04:03:23.184Z,0
2016-10-10T04:04:23.452Z,0
2016-10-10T04:05:23.121Z,0
2016-10-10T04:06:23.068Z,0
2016-10-10T04:07:23.338Z,0
2016-10-10T04:08:22.991Z,0
2016-10-10T04:09:23.247Z,0
2016-10-10T04:10:23.220Z,0
2016-10-10T04:11:23.165Z,0
2016-10-10T04:12:22.836Z,0
2016-10-10T04:13:22.784Z,0
2016-10-10T04:14:22.131Z,0
2016-10-10T04:15:22.699Z,0
2016-10-10T04:16:22.956Z,0
2016-10-10T04:17:22.922Z,0
2016-10-10T04:18:22.272Z,0
2016-10-10T04:19:22.839Z,0
2016-10-10T04:20:22.188Z,0
2016-10-10T04:21:22.756Z,0
2016-10-10T04:22:22.708Z,0
2016-10-10T04:23:22.676Z,0
2016-10-10T04:24:22.632Z,0
2016-10-10T04:25:22.301Z,0
2016-10-10T04:26:22.244Z,0
2016-10-10T04:27:22.512Z,0
2016-10-10T04:28:22.465Z,0
2016-10-10T04:29:22.127Z,0
2016-10-10T04:30:22.389Z,0
2016-10-10T04:31:22.345Z,0
2016-10-10T04:32:22.003Z,0
2016-10-10T04:33:22.268Z,0
2016-10-10T04:34:21.919Z,0
2016-10-10T04:35:22.185Z,0
2016-10-10T04:36:22.138Z,0
2016-10-10T04:37:22.099Z,0
2016-10-10T04:38:21.760Z,0
2016-10-10T04:39:22.022Z,0
2016-10-10T04:40:21.680Z,0
2016-10-10T04:41:21.952Z,0
2016-10-10T04:42:21.899Z,0
2016-10-10T04:43:21.555Z,0
2016-10-10T04:44:21.521Z,0
2016-10-10T04:45:21.774Z,0
2016-10-10T04:46:21.430Z,0
2016-10-10T04:47:21.693Z,0
2016-10-10T04:48:21.654Z,0
2016-10-10T04:49:21.312Z,0
2016-10-10T04:50:21.571Z,0
2016-10-10T04:51:21.238Z,0
2016-10-10T04:52:21.493Z,0
2016-10-10T04:53:21.441Z,0
2016-10-10T04:54:21.103Z,0
2016-10-10T04:55:21.366Z,0
2016-10-10T04:56:21.321Z,0
2016-10-10T04:57:21.281Z,0
2016-10-10T04:58:21.248Z,0
2016-10-10T04:59:21.200Z,0
2016-10-10T05:00:20.863Z,0
2016-10-10T05:01:20.818Z,0
2016-10-10T05:02:21.083Z,4
2016-10-10T05:03:20.737Z,0
2016-10-10T05:04:20.394Z,0
2016-10-10T05:05:20.957Z,4
2016-10-10T05:06:20.922Z,4
2016-10-10T05:07:20.272Z,4
2016-10-10T05:08:20.839Z,8
2016-10-10T05:09:20.804Z,8
2016-10-10T05:10:20.448Z,8
2016-10-10T05:11:20.720Z,8
2016-10-10T05:12:20.685Z,12
2016-10-10T05:13:20.632Z,12
2016-10-10T05:14:20.593Z,16
2016-10-10T05:15:20.248Z,16
2016-10-10T05:16:20.505Z,20
2016-10-10T05:17:20.161Z,24
2016-10-10T05:18:20.422Z,28
2016-10-10T05:19:20.082Z,36
2016-10-10T05:20:20.339Z,44
2016-10-10T05:21:20.000Z,52
2016-10-10T05:22:20.262Z,68
2016-10-10T05:23:20.216Z,80
2016-10-10T05:24:19.877Z,96
2016-10-10T05:25:20.145Z,112
2016-10-10T05:26:19.794Z,124
2016-10-10T05:27:20.057Z,144
2016-10-10T05:28:20.017Z,164
2016-10-10T05:29:19.990Z,184
2016-10-10T05:30:19.635Z,208
2016-10-10T05:31:19.591Z,232
2016-10-10T05:32:19.552Z,256
2016-10-10T05:33:19.812Z,280
2016-10-10T05:34:19.769Z,312
2016-10-10T05:35:19.424Z,336
2016-10-10T05:36:19.688Z,368
2016-10-10T05:37:19.347Z,400
2016-10-10T05:38:19.299Z,432
2016-10-10T05:39:19.261Z,472
2016-10-10T05:40:19.221Z,512
2016-10-10T05:41:19.478Z,552
2016-10-10T05:42:19.442Z,604
2016-10-10T05:43:19.393Z,656
2016-10-10T05:44:18.758Z,708
2016-10-10T05:45:19.011Z,768
2016-10-10T05:46:19.277Z,832
2016-10-10T05:47:19.233Z,908
2016-10-10T05:48:19.196Z,984
2016-10-10T05:49:19.150Z,1072
2016-10-10T05:50:19.117Z,1160
2016-10-10T05:51:18.768Z,1252
2016-10-10T05:52:18.728Z,1352
2016-10-10T05:53:18.689Z,1452
2016-10-10T05:54:18.953Z,1536
2016-10-10T05:55:18.603Z,1620
2016-10-10T05:56:18.567Z,1700
2016-10-10T05:57:18.829Z,1796
2016-10-10T05:58:18.490Z,1912
2016-10-10T05:59:18.447Z,2052
2016-10-10T06:00:18.099Z,2192
2016-10-10T06:01:18.660Z,2348
2016-10-10T06:02:18.630Z,2520
2016-10-10T06:03:18.578Z,2704
2016-10-10T06:04:17.638Z,2848
2016-10-10T06:05:18.501Z,2980
2016-10-10T06:06:18.152Z,3120
2016-10-10T06:07:18.122Z,3276
2016-10-10T06:08:18.374Z,3424
2016-10-10T06:09:18.337Z,3528
2016-10-10T06:10:17.988Z,3624
2016-10-10T06:11:18.253Z,3756
2016-10-10T06:12:17.616Z,3896
2016-10-10T06:13:18.172Z,4052
2016-10-10T06:14:17.827Z,4244
2016-10-10T06:15:18.090Z,4484
2016-10-10T06:16:18.052Z,4732
2016-10-10T06:17:18.024Z,4940
2016-10-10T06:18:17.968Z,5164
2016-10-10T06:19:17.632Z,5396
2016-10-10T06:20:17.587Z,5700
2016-10-10T06:21:17.842Z,6084
2016-10-10T06:22:17.808Z,6528
2016-10-10T06:23:17.767Z,6960
2016-10-10T06:24:17.736Z,7332
2016-10-10T06:25:17.081Z,7620
2016-10-10T06:26:17.654Z,7856
2016-10-10T06:27:17.613Z,7960
2016-10-10T06:28:17.568Z,7980
2016-10-10T06:29:16.928Z,7836
2016-10-10T06:30:17.202Z,7492
2016-10-10T06:31:16.848Z,6988
2016-10-10T06:32:17.120Z,6816
2016-10-10T06:33:17.083Z,6872
2016-10-10T06:34:17.345Z,6612
2016-10-10T06:35:17.001Z,6448
2016-10-10T06:36:17.261Z,6288
2016-10-10T06:37:17.224Z,6136
2016-10-10T06:38:17.185Z,6016
2016-10-10T06:39:16.848Z,5920
2016-10-10T06:40:17.111Z,5836
2016-10-10T06:41:17.070Z,5652
2016-10-10T06:42:16.130Z,5452
2016-10-10T06:43:16.997Z,5436
2016-10-10T06:44:16.345Z,5564
2016-10-10T06:45:16.610Z,5948
2016-10-10T06:46:16.573Z,6476
2016-10-10T06:47:16.841Z,6980
2016-10-10T06:48:16.798Z,7236
2016-10-10T06:49:16.471Z,7432
2016-10-10T06:50:16.717Z,7536
2016-10-10T06:51:16.677Z,7476
2016-10-10T06:52:16.644Z,7392
2016-10-10T06:53:16.605Z,7556
2016-10-10T06:54:16.560Z,10240
2016-10-10T06:55:15.933Z,10844
2016-10-10T06:56:16.487Z,11232
2016-10-10T06:57:16.453Z,10096
2016-10-10T06:58:16.109Z,8744
2016-10-10T06:59:16.383Z,7988
2016-10-10T07:00:16.037Z,7984
2016-10-10T07:01:16.301Z,7940
2016-10-10T07:02:15.952Z,7096
2016-10-10T07:03:15.915Z,5828
2016-10-10T07:04:16.180Z,5232
2016-10-10T07:05:16.149Z,5156
2016-10-10T07:06:15.797Z,5396
2016-10-10T07:07:15.762Z,6244
2016-10-10T07:08:15.420Z,7816
2016-10-10T07:09:15.984Z,8656
2016-10-10T07:10:15.645Z,8120
2016-10-10T07:11:15.614Z,6956
2016-10-10T07:12:15.869Z,5884
2016-10-10T07:13:15.528Z,5216
2016-10-10T07:14:15.796Z,4688
2016-10-10T07:15:15.453Z,4320
2016-10-10T07:16:15.718Z,3812
2016-10-10T07:17:15.680Z,3336
2016-10-10T07:18:15.340Z,3044
2016-10-10T07:19:15.600Z,2844
2016-10-10T07:20:15.264Z,2716
2016-10-10T07:21:15.227Z,2728
2016-10-10T07:22:15.486Z,2828
2016-10-10T07:23:15.146Z,2860
2016-10-10T07:24:15.411Z,2876
2016-10-10T07:25:15.371Z,2900
2016-10-10T07:26:15.331Z,3068
2016-10-10T07:27:14.993Z,3308
2016-10-10T07:28:15.253Z,3584
2016-10-10T07:29:15.218Z,3672
2016-10-10T07:30:14.570Z,3588
2016-10-10T07:31:15.140Z,3380
2016-10-10T07:32:14.792Z,3208
2016-10-10T07:33:15.060Z,3064
2016-10-10T07:34:14.720Z,3060
2016-10-10T07:35:14.996Z,3148
2016-10-10T07:36:14.339Z,3236
2016-10-10T07:37:14.911Z,3508
2016-10-10T07:38:14.265Z,3948
2016-10-10T07:39:14.829Z,4228
2016-10-10T07:40:14.492Z,4460
2016-10-10T07:41:14.449Z,5236
2016-10-10T07:42:14.714Z,6628
2016-10-10T07:43:14.672Z,7632
2016-10-10T07:44:14.338Z,7100
2016-10-10T07:45:13.992Z,6936
2016-10-10T07:46:13.953Z,7516
2016-10-10T07:47:14.520Z,7328
2016-10-10T07:48:14.491Z,6984
2016-10-10T07:49:14.448Z,6232
2016-10-10T07:50:13.801Z,5400
2016-10-10T07:51:14.364Z,4772
2016-10-10T07:52:14.029Z,4156
2016-10-10T07:53:13.992Z,3564
2016-10-10T07:54:14.268Z,3436
2016-10-10T07:55:14.214Z,3588
2016-10-10T07:56:13.873Z,3944
2016-10-10T07:57:13.539Z,4556
2016-10-10T07:58:13.803Z,5264
2016-10-10T07:59:13.758Z,6640
2016-10-10T08:00:13.419Z,8016
2016-10-10T08:01:13.983Z,9136
2016-10-10T08:02:13.947Z,10180
2016-10-10T08:03:13.624Z,9908
2016-10-10T08:04:13.871Z,10536
2016-10-10T08:05:13.842Z,10568
2016-10-10T08:06:13.496Z,9340
2016-10-10T08:07:13.159Z,7664
2016-10-10T08:08:13.417Z,6052
2016-10-10T08:09:13.380Z,5232
2016-10-10T08:10:13.655Z,5348
2016-10-10T08:11:13.309Z,5800
2016-10-10T08:12:13.575Z,5932
2016-10-10T08:13:13.537Z,5912
2016-10-10T08:14:13.496Z,6452
2016-10-10T08:15:13.155Z,7204
2016-10-10T08:16:13.421Z,7956
2016-10-10T08:17:12.778Z,8816
2016-10-10T08:18:13.040Z,9444
2016-10-10T08:19:13.312Z,9044
2016-10-10T08:20:12.969Z,8468
2016-10-10T08:21:12.929Z,8192
2016-10-10T08:22:12.894Z,8020
2016-10-10T08:23:13.159Z,8084
2016-10-10T08:24:13.126Z,8156
2016-10-10T08:25:13.089Z,8536
2016-10-10T08:26:13.043Z,9092
2016-10-10T08:27:13.010Z,11188
2016-10-10T08:28:12.376Z,10592
2016-10-10T08:29:12.936Z,10996
2016-10-10T08:30:12.903Z,10828
2016-10-10T08:31:12.864Z,10280
2016-10-10T08:32:12.840Z,10888
2016-10-10T08:33:12.802Z,12472
2016-10-10T08:34:12.752Z,11668
2016-10-10T08:35:12.412Z,10724
2016-10-10T08:36:12.681Z,10580
2016-10-10T08:37:12.342Z,9664
2016-10-10T08:38:12.601Z,9576
2016-10-10T08:39:12.568Z,9208
2016-10-10T08:40:12.533Z,9276
2016-10-10T08:41:12.216Z,9912
2016-10-10T08:42:12.454Z,9552
2016-10-10T08:43:12.119Z,9028
2016-10-10T08:44:12.377Z,8756
2016-10-10T08:45:12.346Z,9076
2016-10-10T08:46:12.311Z,9980
2016-10-10T08:47:11.964Z,11192
2016-10-10T08:48:11.329Z,11664
2016-10-10T08:49:12.195Z,14476
2016-10-10T08:50:11.252Z,19552
2016-10-10T08:51:12.123Z,18464
2016-10-10T08:52:12.094Z,20256
2016-10-10T08:53:11.749Z,17792
2016-10-10T08:54:12.022Z,16144
2016-10-10T08:55:11.975Z,15572
2016-10-10T08:56:11.945Z,12336
2016-10-10T08:57:11.608Z,12904
2016-10-10T08:58:11.874Z,12212
2016-10-10T08:59:11.832Z,12720
2016-10-10T09:00:11.801Z,15780
2016-10-10T09:01:11.777Z,20288
2016-10-10T09:02:11.724Z,22976
2016-10-10T09:03:11.696Z,21568
2016-10-10T09:04:11.357Z,26400
2016-10-10T09:05:11.317Z,20832
2016-10-10T09:06:11.287Z,12136
2016-10-10T09:07:11.555Z,9384
2016-10-10T09:08:11.518Z,9372
2016-10-10T09:09:11.477Z,10148
2016-10-10T09:10:11.136Z,10224
2016-10-10T09:11:11.108Z,8252
2016-10-10T09:12:11.375Z,7668
2016-10-10T09:13:11.331Z,8336
2016-10-10T09:14:11.300Z,9368
2016-10-10T09:15:11.263Z,10728
2016-10-10T09:16:10.938Z,11168
2016-10-10T09:17:11.194Z,11820
2016-10-10T09:18:11.164Z,12792
2016-10-10T09:19:11.129Z,13384
2016-10-10T09:20:10.792Z,12792
2016-10-10T09:21:11.052Z,13748
2016-10-10T09:22:11.022Z,13344
2016-10-10T09:23:10.682Z,12540
2016-10-10T09:24:10.646Z,11456
2016-10-10T09:25:10.613Z,11672
2016-10-10T09:26:10.582Z,11632
2016-10-10T09:27:10.848Z,11360
2016-10-10T09:28:10.203Z,10016
2016-10-10T09:29:10.474Z,9468
2016-10-10T09:30:10.140Z,9184
2016-10-10T09:31:10.712Z,9268
2016-10-10T09:32:10.069Z,10312
2016-10-10T09:33:10.341Z,14088
2016-10-10T09:34:10.601Z,13252
2016-10-10T09:35:10.267Z,10744
2016-10-10T09:36:10.227Z,10892
2016-10-10T09:37:10.216Z,11576
2016-10-10T09:38:10.161Z,12540
2016-10-10T09:39:09.825Z,10936
2016-10-10T09:40:10.105Z,10244
2016-10-10T09:41:10.057Z,10536
2016-10-10T09:42:10.334Z,10924
2016-10-10T09:43:10.289Z,11368
2016-10-10T09:44:10.268Z,10900
2016-10-10T09:45:09.920Z,11180
2016-10-10T09:46:09.889Z,12400
2016-10-10T09:47:10.152Z,13624
2016-10-10T09:48:09.814Z,17632
2016-10-10T09:49:09.779Z,14832
2016-10-10T09:50:10.042Z,14204
2016-10-10T09:51:09.708Z,15332
2016-10-10T09:52:09.975Z,14540
2016-10-10T09:53:09.337Z,15244
2016-10-10T09:54:09.905Z,13392
2016-10-10T09:55:09.281Z,15732
2016-10-10T09:56:09.839Z,18240
2016-10-10T09:57:09.800Z,17760
2016-10-10T09:58:09.777Z,44448
2016-10-10T09:59:09.127Z,18272
2016-10-10T10:00:09.402Z,32736
2016-10-10T10:01:09.665Z,23104
2016-10-10T10:02:09.633Z,33376
2016-10-10T10:03:08.994Z,90816
2016-10-10T10:04:09.559Z,25088
2016-10-10T10:05:09.222Z,31552
2016-10-10T10:06:09.503Z,19200
2016-10-10T10:07:09.458Z,15160
2016-10-10T10:08:09.422Z,14916
2016-10-10T10:09:09.389Z,15112
2016-10-10T10:10:09.357Z,13216
2016-10-10T10:11:09.020Z,10892
2016-10-10T10:12:09.287Z,12504
2016-10-10T10:13:08.949Z,12112
2016-10-10T10:14:09.213Z,10500
2016-10-10T10:15:08.883Z,11244
2016-10-10T10:16:09.147Z,10760
2016-10-10T10:17:08.526Z,11036
2016-10-10T10:18:09.078Z,12152
2016-10-10T10:19:09.042Z,12196
2016-10-10T10:20:08.699Z,11576
2016-10-10T10:21:08.673Z,10036
2016-10-10T10:22:08.630Z,10284
2016-10-10T10:23:08.611Z,9920
2016-10-10T10:24:08.259Z,9576
2016-10-10T10:25:08.534Z,9300
2016-10-10T10:26:08.791Z,10040
2016-10-10T10:27:08.480Z,11260
2016-10-10T10:28:08.723Z,11980
2016-10-10T10:29:08.688Z,11536
2016-10-10T10:30:08.353Z,10828
2016-10-10T10:31:08.320Z,10536
2016-10-10T10:32:08.283Z,11080
2016-10-10T10:33:08.551Z,11984
2016-10-10T10:34:08.521Z,12896
2016-10-10T10:35:08.478Z,13488
2016-10-10T10:36:08.140Z,12272
2016-10-10T10:37:08.104Z,13392
2016-10-10T10:38:08.375Z,14692
2016-10-10T10:39:08.332Z,15236
2016-10-10T10:40:08.002Z,14544
2016-10-10T10:41:08.262Z,12292
2016-10-10T10:42:07.930Z,11024
2016-10-10T10:43:07.593Z,10468
2016-10-10T10:44:07.858Z,11364
2016-10-10T10:45:08.125Z,13380
2016-10-10T10:46:07.785Z,17440
2016-10-10T10:47:08.058Z,10836
2016-10-10T10:48:07.720Z,10484
2016-10-10T10:49:08.001Z,11556
2016-10-10T10:50:07.978Z,12172
2016-10-10T10:51:07.911Z,12648
2016-10-10T10:52:07.876Z,13104
2016-10-10T10:53:07.841Z,13104
2016-10-10T10:54:07.804Z,13536
2016-10-10T10:55:07.768Z,13508
2016-10-10T10:56:07.130Z,12192
2016-10-10T10:57:07.704Z,11480
2016-10-10T10:58:07.069Z,11888
2016-10-10T10:59:07.628Z,13812
2016-10-10T11:00:07.304Z,15908
2016-10-10T11:01:06.958Z,20896
2016-10-10T11:02:07.532Z,15952
2016-10-10T11:03:07.489Z,14536
2016-10-10T11:04:07.457Z,15204
2016-10-10T11:05:07.427Z,18112
2016-10-10T11:06:07.390Z,19712
2016-10-10T11:07:07.355Z,21440
2016-10-10T11:08:07.016Z,19072
2016-10-10T11:09:07.289Z,25440
2016-10-10T11:10:07.247Z,18752
2016-10-10T11:11:07.218Z,25120
2016-10-10T11:12:07.188Z,20608
2016-10-10T11:13:06.846Z,14676
2016-10-10T11:14:06.815Z,16216
2016-10-10T11:15:07.081Z,13776
2016-10-10T11:16:06.747Z,15360
2016-10-10T11:17:07.016Z,15404
2016-10-10T11:18:06.990Z,21088
2016-10-10T11:19:06.644Z,29536
2016-10-10T11:20:06.914Z,53024
2016-10-10T11:21:06.581Z,48608
2016-10-10T11:22:06.546Z,22208
2016-10-10T11:23:06.818Z,18880
2016-10-10T11:24:06.479Z,15136
2016-10-10T11:25:06.745Z,18208
2016-10-10T11:26:06.414Z,14352
2016-10-10T11:27:06.682Z,16224
2016-10-10T11:28:06.651Z,16220
2016-10-10T11:29:06.621Z,14380
2016-10-10T11:30:06.585Z,10312
2016-10-10T11:31:06.554Z,9552
2016-10-10T11:32:06.223Z,10020
2016-10-10T11:33:06.492Z,13624
2016-10-10T11:34:06.456Z,12800
2016-10-10T11:35:06.119Z,13424
2016-10-10T11:36:06.086Z,13964
2016-10-10T11:37:06.050Z,13592
2016-10-10T11:38:06.025Z,13132
2016-10-10T11:39:05.993Z,12352
2016-10-10T11:40:05.961Z,11792
2016-10-10T11:41:06.221Z,9652
2016-10-10T11:42:05.898Z,10052
2016-10-10T11:43:06.157Z,12008
2016-10-10T11:44:05.823Z,12188
2016-10-10T11:45:05.790Z,12268
2016-10-10T11:46:06.078Z,11916
2016-10-10T11:47:05.723Z,10976
2016-10-10T11:48:05.388Z,10076
2016-10-10T11:49:05.669Z,10064
2016-10-10T11:50:05.621Z,9900
2016-10-10T11:51:05.290Z,9848
2016-10-10T11:52:05.856Z,9636
2016-10-10T11:53:05.831Z,9976
2016-10-10T11:54:05.800Z,9816
2016-10-10T11:55:05.456Z,9760
2016-10-10T11:56:05.748Z,9316
2016-10-10T11:57:05.692Z,8568
2016-10-10T11:58:05.353Z,8008
2016-10-10T11:59:05.322Z,7736
2016-10-10T12:00:05.286Z,7660
2016-10-10T12:01:05.586Z,7716
2016-10-10T12:02:05.516Z,7948
2016-10-10T12:03:05.492Z,8448
2016-10-10T12:04:05.459Z,8744
2016-10-10T12:05:05.421Z,8972
2016-10-10T12:06:05.081Z,9284
2016-10-10T12:07:05.044Z,9388
2016-10-10T12:08:05.312Z,10040
2016-10-10T12:09:04.982Z,10656
2016-10-10T12:10:05.238Z,10724
2016-10-10T12:11:04.914Z,10692
2016-10-10T12:12:04.872Z,11056
2016-10-10T12:13:05.139Z,11404
2016-10-10T12:14:05.102Z,11248
2016-10-10T12:15:04.767Z,11160
2016-10-10T12:16:04.737Z,11100
2016-10-10T12:17:05.008Z,11120
2016-10-10T12:18:04.664Z,11688
2016-10-10T12:19:04.630Z,12560
2016-10-10T12:20:04.906Z,13444
2016-10-10T12:21:04.861Z,14212
2016-10-10T12:22:04.833Z,14596
2016-10-10T12:23:04.487Z,14144
2016-10-10T12:24:04.459Z,13184
2016-10-10T12:25:04.756Z,12312
2016-10-10T12:26:04.389Z,11028
2016-10-10T12:27:04.663Z,9544
2016-10-10T12:28:04.623Z,8432
2016-10-10T12:29:04.289Z,7520
2016-10-10T12:30:04.558Z,7232
2016-10-10T12:31:04.523Z,7196
2016-10-10T12:32:04.494Z,7236
2016-10-10T12:33:04.452Z,7188
2016-10-10T12:34:04.417Z,7124
2016-10-10T12:35:04.388Z,7092
2016-10-10T12:36:04.056Z,7084
2016-10-10T12:37:04.092Z,7096
2016-10-10T12:38:03.982Z,7140
2016-10-10T12:39:04.244Z,7244
2016-10-10T12:40:03.913Z,7356
2016-10-10T12:41:04.202Z,7460
2016-10-10T12:42:03.844Z,7516
2016-10-10T12:43:04.115Z,7616
2016-10-10T12:44:04.079Z,7732
2016-10-10T12:45:03.738Z,7812
2016-10-10T12:46:04.008Z,7904
2016-10-10T12:47:03.973Z,7980
2016-10-10T12:48:03.935Z,8068
2016-10-10T12:49:03.899Z,8216
2016-10-10T12:50:03.574Z,8372
2016-10-10T12:51:03.528Z,8476
2016-10-10T12:52:03.495Z,8516
2016-10-10T12:53:03.757Z,8516
2016-10-10T12:54:03.731Z,8500
2016-10-10T12:55:03.392Z,8484
2016-10-10T12:56:03.359Z,8452
2016-10-10T12:57:03.333Z,8412
2016-10-10T12:58:02.988Z,8360
2016-10-10T12:59:03.573Z,8276
2016-10-10T13:00:03.240Z,8180
2016-10-10T13:01:03.198Z,8092
2016-10-10T13:02:02.851Z,7976
2016-10-10T13:03:03.414Z,7780
2016-10-10T13:04:03.087Z,7588
2016-10-10T13:05:02.741Z,7392
2016-10-10T13:06:03.010Z,7176
2016-10-10T13:07:03.295Z,7060
2016-10-10T13:08:02.941Z,6932
2016-10-10T13:09:02.905Z,6812
2016-10-10T13:10:02.869Z,6736
2016-10-10T13:11:03.142Z,6684
2016-10-10T13:12:02.804Z,6728
2016-10-10T13:13:03.070Z,6816
2016-10-10T13:14:02.736Z,6944
2016-10-10T13:15:02.995Z,7104
2016-10-10T13:16:02.961Z,7328
2016-10-10T13:17:02.624Z,7496
2016-10-10T13:18:02.893Z,7524
2016-10-10T13:19:02.250Z,7508
2016-10-10T13:20:02.832Z,7564
2016-10-10T13:21:02.482Z,7736
2016-10-10T13:22:02.761Z,7920
2016-10-10T13:23:02.416Z,8032
2016-10-10T13:24:02.379Z,7952
2016-10-10T13:25:02.653Z,7736
2016-10-10T13:26:02.308Z,7504
2016-10-10T13:27:02.275Z,7244
2016-10-10T13:28:01.936Z,7024
2016-10-10T13:29:02.501Z,6900
2016-10-10T13:30:02.171Z,6884
2016-10-10T13:31:01.832Z,6904
2016-10-10T13:32:02.093Z,6860
2016-10-10T13:33:02.362Z,6708
2016-10-10T13:34:01.725Z,6472
2016-10-10T13:35:02.283Z,6264
2016-10-10T13:36:01.954Z,6096
2016-10-10T13:37:02.223Z,5992
2016-10-10T13:38:02.195Z,5968
2016-10-10T13:39:01.847Z,6012
2016-10-10T13:40:02.120Z,6124
2016-10-10T13:41:01.776Z,6260
2016-10-10T13:42:01.743Z,6368
2016-10-10T13:43:02.016Z,6368
2016-10-10T13:44:01.666Z,6260